createdAt,value
2022-11-27T00:01:24.795Z,88.53
2022-11-27T00:03:38.330Z,88.51
2022-11-27T00:06:01.839Z,88.79
2022-11-27T00:08:15.318Z,88.93
2022-11-27T00:10:28.749Z,89.16
2022-11-27T00:12:42.208Z,89.38
2022-11-27T00:14:56.586Z,89.52
2022-11-27T00:17:09.746Z,89.58
2022-11-27T00:19:23.361Z,89.72
2022-11-27T00:21:39.407Z,89.78
2022-11-27T00:23:52.953Z,89.78
2022-11-27T00:26:07.348Z,89.95
2022-11-27T00:28:20.991Z,90.15
2022-11-27T00:30:34.664Z,89.99
2022-11-27T00:32:48.068Z,90.21
2022-11-27T00:35:01.343Z,90.14
2022-11-27T00:37:16.025Z,90.25
2022-11-27T00:39:29.245Z,90.51
2022-11-27T00:41:42.577Z,90.53
2022-11-27T00:43:56.016Z,90.55
2022-11-27T00:46:09.792Z,90.50
2022-11-27T00:48:23.067Z,90.72
2022-11-27T00:50:36.725Z,90.79
2022-11-27T00:52:50.285Z,90.77
2022-11-27T00:55:03.549Z,90.81
2022-11-27T00:57:16.867Z,90.83
2022-11-27T00:59:30.670Z,90.78
2022-11-27T01:01:46.591Z,90.72
2022-11-27T01:04:01.584Z,90.83
2022-11-27T01:06:15.309Z,90.82
2022-11-27T01:08:28.715Z,90.92
2022-11-27T01:10:42.543Z,91.02
2022-11-27T01:12:56.896Z,91.10
2022-11-27T01:15:11.203Z,91.07
2022-11-27T01:17:24.477Z,91.23
2022-11-27T01:19:37.827Z,91.31
2022-11-27T01:21:51.464Z,91.35
2022-11-27T01:24:06.367Z,91.55
2022-11-27T01:26:20.967Z,91.46
2022-11-27T01:28:34.337Z,91.61
2022-11-27T01:30:47.769Z,91.48
2022-11-27T01:33:01.117Z,91.54
2022-11-27T01:35:15.559Z,91.64
2022-11-27T01:37:28.848Z,91.82
2022-11-27T01:39:42.208Z,91.77
2022-11-27T01:41:55.545Z,91.91
2022-11-27T01:44:22.033Z,92.20
2022-11-27T01:46:40.563Z,92.21
2022-11-27T01:48:54.523Z,92.31
2022-11-27T01:51:08.104Z,92.27
2022-11-27T01:53:23.363Z,92.33
2022-11-27T01:55:40.997Z,92.53
2022-11-27T01:57:58.435Z,92.46
2022-11-27T02:00:15.698Z,92.57
2022-11-27T02:02:29.883Z,92.64
2022-11-27T02:04:44.348Z,92.80
2022-11-27T02:06:58.657Z,92.80
2022-11-27T02:09:11.966Z,92.81
2022-11-27T02:11:32.173Z,92.92
2022-11-27T02:13:49.063Z,92.93
2022-11-27T02:16:11.764Z,93.09
2022-11-27T02:18:34.657Z,93.30
2022-11-27T02:20:54.385Z,93.34
2022-11-27T02:23:29.374Z,93.64
2022-11-27T02:25:55.752Z,93.79
2022-11-27T02:28:28.899Z,94.07
2022-11-27T02:30:48.557Z,94.35
2022-11-27T02:33:10.247Z,94.73
2022-11-27T02:35:29.307Z,94.70
2022-11-27T02:37:48.769Z,94.61
2022-11-27T02:40:11.626Z,94.48
2022-11-27T02:42:23.365Z,94.45
2022-11-27T02:44:42.555Z,94.47
2022-11-27T02:46:56.709Z,94.59
2022-11-27T02:49:13.353Z,94.47
2022-11-27T02:51:32.363Z,94.43
2022-11-27T02:53:50.910Z,94.45
2022-11-27T02:56:06.484Z,94.24
2022-11-27T02:58:23.338Z,94.29
2022-11-27T03:00:39.380Z,94.22
2022-11-27T03:03:00.149Z,94.24
2022-11-27T03:05:18.501Z,94.02
2022-11-27T03:07:37.220Z,94.11
2022-11-27T03:09:54.611Z,93.96
2022-11-27T03:12:10.863Z,94.04
2022-11-27T03:14:26.125Z,94.12
2022-11-27T03:16:43.372Z,94.25
2022-11-27T03:19:07.227Z,94.36
2022-11-27T03:21:30.600Z,94.28
2022-11-27T03:23:44.341Z,94.18
2022-11-27T03:25:58.085Z,94.20
2022-11-27T03:28:14.122Z,94.25
2022-11-27T03:30:27.658Z,94.24
2022-11-27T03:32:41.428Z,94.15
2022-11-27T03:34:55.272Z,94.22
2022-11-27T03:37:08.873Z,94.16
2022-11-27T03:39:22.896Z,94.12
2022-11-27T03:41:44.375Z,94.09
2022-11-27T03:44:09.389Z,94.09
2022-11-27T03:46:27.833Z,94.15
2022-11-27T03:48:47.184Z,94.21
2022-11-27T03:51:11.306Z,94.38
2022-11-27T03:53:35.122Z,94.38
2022-11-27T03:55:55.863Z,94.50
2022-11-27T03:58:12.919Z,94.55
2022-11-27T04:00:27.215Z,94.64
2022-11-27T04:02:48.659Z,94.71
2022-11-27T04:05:02.070Z,94.77
2022-11-27T04:07:19.446Z,94.79
2022-11-27T04:09:32.642Z,94.78
2022-11-27T04:11:45.822Z,94.81
2022-11-27T04:13:59.150Z,94.58
2022-11-27T04:16:13.523Z,94.80
2022-11-27T04:18:26.824Z,94.66
2022-11-27T04:20:40.104Z,94.46
2022-11-27T04:22:53.719Z,94.49
2022-11-27T04:25:07.759Z,94.54
2022-11-27T04:27:21.317Z,94.58
2022-11-27T04:29:34.884Z,94.41
2022-11-27T04:31:48.384Z,94.23
2022-11-27T04:34:02.048Z,94.15
2022-11-27T04:36:15.644Z,94.36
2022-11-27T04:38:29.154Z,94.33
2022-11-27T04:40:42.536Z,94.52
2022-11-27T04:42:55.953Z,94.63
2022-11-27T04:45:10.238Z,94.60
2022-11-27T04:47:23.883Z,94.75
2022-11-27T04:49:37.315Z,94.91
2022-11-27T04:51:50.711Z,94.86
2022-11-27T04:54:04.386Z,94.96
2022-11-27T04:56:17.663Z,94.90
2022-11-27T04:58:31.083Z,95.15
2022-11-27T05:00:44.475Z,95.25
2022-11-27T05:02:57.733Z,95.09
2022-11-27T05:05:11.909Z,95.24
2022-11-27T05:07:25.333Z,95.39
2022-11-27T05:09:39.012Z,95.43
2022-11-27T05:11:52.428Z,95.37
2022-11-27T05:14:23.051Z,95.57
2022-11-27T05:16:36.798Z,95.76
2022-11-27T05:18:50.150Z,95.70
2022-11-27T05:21:08.223Z,96.39
2022-11-27T05:23:21.482Z,96.06
2022-11-27T05:25:37.529Z,96.28
2022-11-27T05:27:50.861Z,96.30
2022-11-27T05:30:04.393Z,96.22
2022-11-27T05:32:17.787Z,96.39
2022-11-27T05:34:31.312Z,96.48
2022-11-27T05:36:45.251Z,96.61
2022-11-27T05:38:58.707Z,96.48
2022-11-27T05:41:12.356Z,96.86
2022-11-27T05:43:25.887Z,96.59
2022-11-27T05:45:40.384Z,96.77
2022-11-27T05:47:53.715Z,96.95
2022-11-27T05:50:07.531Z,96.86
2022-11-27T05:52:21.188Z,96.85
2022-11-27T05:54:34.746Z,96.92
2022-11-27T05:56:48.240Z,96.79
2022-11-27T05:59:01.671Z,96.74
2022-11-27T06:01:16.334Z,96.80
2022-11-27T06:03:29.847Z,96.67
2022-11-27T06:05:44.918Z,96.71
2022-11-27T06:07:58.653Z,96.63
2022-11-27T06:10:13.374Z,96.62
2022-11-27T06:12:26.582Z,96.67
2022-11-27T06:14:40.612Z,96.63
2022-11-27T06:16:54.120Z,96.73
2022-11-27T06:19:07.699Z,96.72
2022-11-27T06:21:21.526Z,96.60
2022-11-27T06:23:34.848Z,96.49
2022-11-27T06:25:48.105Z,96.51
2022-11-27T06:28:01.637Z,96.43
2022-11-27T06:30:16.644Z,96.34
2022-11-27T06:32:30.275Z,96.44
2022-11-27T06:34:43.610Z,96.56
2022-11-27T06:36:56.826Z,96.41
2022-11-27T06:39:11.827Z,96.53
2022-11-27T06:41:28.259Z,96.55
2022-11-27T06:43:41.892Z,96.46
2022-11-27T06:46:03.711Z,96.43
2022-11-27T06:48:17.243Z,96.52
2022-11-27T06:50:30.597Z,96.53
2022-11-27T06:52:43.972Z,96.78
2022-11-27T06:54:57.452Z,97.68
2022-11-27T06:57:10.833Z,98.19
2022-11-27T06:59:24.923Z,98.69
2022-11-27T07:01:38.441Z,99.20
2022-11-27T07:03:51.793Z,99.74
2022-11-27T07:06:09.541Z,99.50
2022-11-27T07:08:23.407Z,99.67
2022-11-27T07:10:39.679Z,99.70
2022-11-27T07:12:53.268Z,99.54
2022-11-27T07:15:06.775Z,99.78
2022-11-27T07:17:20.159Z,99.67
2022-11-27T07:19:33.705Z,99.68
2022-11-27T07:21:47.661Z,99.55
2022-11-27T07:24:01.510Z,99.66
2022-11-27T07:26:17.483Z,99.99
2022-11-27T07:28:33.672Z,100.00
2022-11-27T07:30:47.108Z,100.00
2022-11-27T07:33:00.296Z,100.00
2022-11-27T07:35:14.301Z,100.00
2022-11-27T07:37:27.553Z,100.00
2022-11-27T07:40:01.265Z,100.00
2022-11-27T07:44:47.363Z,100.00
2022-11-27T07:47:00.814Z,100.00
2022-11-27T07:49:14.069Z,100.00
2022-11-27T07:51:27.770Z,100.00
2022-11-27T07:53:41.865Z,100.00
2022-11-27T07:55:55.227Z,100.00
2022-11-27T07:58:08.554Z,100.00
2022-11-27T08:00:24.504Z,100.00
2022-11-27T08:02:38.440Z,100.00
2022-11-27T08:04:51.928Z,100.00
2022-11-27T08:07:05.223Z,100.00
2022-11-27T08:09:18.510Z,100.00
2022-11-27T08:11:34.107Z,100.00
2022-11-27T08:13:47.578Z,100.00
2022-11-27T08:16:02.390Z,100.00
2022-11-27T08:18:15.762Z,100.00
2022-11-27T08:20:29.583Z,100.00
2022-11-27T08:22:42.795Z,100.00
2022-11-27T08:24:56.229Z,100.00
2022-11-27T08:27:09.485Z,100.00
2022-11-27T08:29:22.682Z,100.00
2022-11-27T08:31:36.294Z,100.00
2022-11-27T08:33:49.505Z,100.00
2022-11-27T08:36:02.703Z,100.00
2022-11-27T08:38:15.960Z,100.00
2022-11-27T08:40:30.043Z,100.00
2022-11-27T08:42:43.270Z,100.00
2022-11-27T08:44:56.611Z,100.00
2022-11-27T08:47:09.955Z,100.00
2022-11-27T08:49:23.262Z,100.00
2022-11-27T08:51:37.207Z,100.00
2022-11-27T08:53:50.591Z,100.00
2022-11-27T08:56:12.039Z,100.00
2022-11-27T08:58:25.478Z,100.00
2022-11-27T09:00:39.647Z,100.00
2022-11-27T09:02:53.046Z,100.00
2022-11-27T09:05:08.068Z,100.00
2022-11-27T09:07:23.370Z,100.00
2022-11-27T09:09:37.114Z,100.00
2022-11-27T09:11:50.796Z,100.00
2022-11-27T09:14:06.270Z,100.00
2022-11-27T09:16:21.257Z,100.00
2022-11-27T09:18:34.770Z,100.00
2022-11-27T09:20:48.146Z,100.00
2022-11-27T09:23:03.624Z,100.00
2022-11-27T09:25:17.203Z,100.00
2022-11-27T09:27:30.548Z,100.00
2022-11-27T09:29:43.928Z,100.00
2022-11-27T09:31:57.063Z,100.00
2022-11-27T09:34:10.395Z,100.00
2022-11-27T09:36:25.472Z,100.00
2022-11-27T09:38:39.039Z,100.00
2022-11-27T09:41:00.425Z,100.00
2022-11-27T09:43:19.654Z,100.00
2022-11-27T09:45:34.056Z,100.00
2022-11-27T09:47:50.191Z,100.00
2022-11-27T09:50:05.456Z,100.00
2022-11-27T09:52:25.958Z,100.00
2022-11-27T09:54:48.053Z,100.00
2022-11-27T09:57:04.751Z,100.00
2022-11-27T09:59:21.972Z,100.00
2022-11-27T10:01:45.264Z,100.00
2022-11-27T10:04:04.221Z,100.00
2022-11-27T10:06:29.383Z,100.00
2022-11-27T10:08:49.226Z,100.00
2022-11-27T10:11:17.222Z,100.00
2022-11-27T10:13:49.570Z,100.00
2022-11-27T10:16:07.723Z,100.00
2022-11-27T10:18:27.447Z,100.00
2022-11-27T10:20:48.014Z,100.00
2022-11-27T10:23:08.024Z,100.00
2022-11-27T10:25:24.341Z,100.00
2022-11-27T10:27:42.624Z,100.00
2022-11-27T10:29:58.772Z,100.00
2022-11-27T10:32:47.274Z,100.00
2022-11-27T10:34:56.051Z,100.00
2022-11-27T10:37:17.487Z,100.00
2022-11-27T10:39:37.422Z,100.00
2022-11-27T10:41:56.579Z,100.00
2022-11-27T10:44:26.782Z,100.00
2022-11-27T10:46:44.712Z,100.00
2022-11-27T10:48:58.155Z,100.00
2022-11-27T10:51:20.076Z,100.00
2022-11-27T10:53:36.035Z,100.00
2022-11-27T10:56:02.086Z,100.00
2022-11-27T10:58:27.056Z,100.00
2022-11-27T11:00:40.367Z,100.00
2022-11-27T11:03:02.754Z,100.00
2022-11-27T11:05:45.023Z,100.00
2022-11-27T11:08:08.188Z,100.00
2022-11-27T11:10:32.399Z,100.00
2022-11-27T11:12:45.822Z,100.00
2022-11-27T11:15:00.839Z,100.00
2022-11-27T11:17:27.891Z,100.00
2022-11-27T11:19:41.776Z,100.00
2022-11-27T11:21:55.307Z,100.00
2022-11-27T11:24:11.036Z,100.00
2022-11-27T11:26:36.114Z,100.00
2022-11-27T11:28:56.649Z,100.00
2022-11-27T11:31:13.615Z,100.00
2022-11-27T11:33:26.970Z,100.00
2022-11-27T11:35:40.965Z,100.00
2022-11-27T11:37:55.056Z,100.00
2022-11-27T11:40:14.891Z,100.00
2022-11-27T11:42:31.140Z,100.00
2022-11-27T11:44:53.040Z,100.00
2022-11-27T11:47:06.248Z,100.00
2022-11-27T11:49:26.975Z,100.00
2022-11-27T11:52:06.470Z,100.00
2022-11-27T11:54:36.711Z,100.00
2022-11-27T11:56:53.789Z,100.00
2022-11-27T11:59:10.684Z,100.00
2022-11-27T12:01:41.905Z,100.00
2022-11-27T12:04:12.235Z,100.00
2022-11-27T12:06:41.547Z,100.00
2022-11-27T12:09:04.371Z,100.00
2022-11-27T12:11:22.919Z,100.00
2022-11-27T12:13:50.578Z,100.00
2022-11-27T12:16:08.651Z,100.00
2022-11-27T12:18:27.494Z,100.00
2022-11-27T12:21:02.099Z,100.00
2022-11-27T12:23:42.532Z,100.00
2022-11-27T12:26:06.368Z,100.00
2022-11-27T12:28:35.458Z,100.00
2022-11-27T12:30:55.658Z,100.00
2022-11-27T12:33:36.242Z,100.00
2022-11-27T12:36:00.945Z,100.00
2022-11-27T12:38:30.671Z,100.00
2022-11-27T12:41:03.846Z,100.00
2022-11-27T12:43:24.392Z,100.00
2022-11-27T12:45:42.414Z,100.00
2022-11-27T12:47:59.987Z,100.00
2022-11-27T12:50:19.319Z,100.00
2022-11-27T12:52:39.150Z,100.00
2022-11-27T12:54:58.178Z,100.00
2022-11-27T12:57:17.204Z,100.00
2022-11-27T12:59:34.881Z,100.00
2022-11-27T13:01:55.048Z,100.00
2022-11-27T13:04:17.956Z,100.00
2022-11-27T13:06:29.628Z,100.00
2022-11-27T13:08:52.628Z,100.00
2022-11-27T13:11:11.287Z,100.00
2022-11-27T13:13:31.467Z,100.00
2022-11-27T13:15:51.224Z,100.00
2022-11-27T13:18:15.502Z,100.00
2022-11-27T13:20:35.801Z,100.00
2022-11-27T13:22:51.147Z,100.00
2022-11-27T13:25:07.177Z,100.00
2022-11-27T13:27:24.855Z,100.00
2022-11-27T13:29:42.981Z,100.00
2022-11-27T13:32:02.188Z,100.00
2022-11-27T13:34:24.911Z,100.00
2022-11-27T13:36:43.034Z,100.00
2022-11-27T13:39:03.368Z,100.00
2022-11-27T13:41:27.519Z,100.00
2022-11-27T13:43:48.100Z,100.00
2022-11-27T13:46:08.228Z,100.00
2022-11-27T13:48:36.349Z,100.00
2022-11-27T13:50:52.350Z,100.00
2022-11-27T13:53:08.586Z,100.00
2022-11-27T13:55:31.502Z,100.00
2022-11-27T13:57:55.043Z,100.00
2022-11-27T14:00:10.428Z,100.00
2022-11-27T14:02:26.301Z,100.00
2022-11-27T14:04:55.881Z,100.00
2022-11-27T14:07:12.904Z,100.00
2022-11-27T14:09:35.236Z,100.00
2022-11-27T14:11:52.045Z,100.00
2022-11-27T14:14:06.733Z,100.00
2022-11-27T14:16:31.440Z,100.00
2022-11-27T14:18:53.047Z,100.00
2022-11-27T14:21:07.956Z,100.00
2022-11-27T14:23:35.089Z,100.00
2022-11-27T14:25:48.424Z,100.00
2022-11-27T14:28:19.021Z,100.00
2022-11-27T14:30:36.318Z,100.00
2022-11-27T14:32:51.691Z,100.00
2022-11-27T14:35:04.973Z,100.00
2022-11-27T14:37:29.619Z,100.00
2022-11-27T14:39:43.957Z,100.00
2022-11-27T14:42:05.642Z,100.00
2022-11-27T14:44:22.246Z,100.00
2022-11-27T14:46:38.916Z,100.00
2022-11-27T14:48:53.483Z,100.00
2022-11-27T14:51:07.004Z,100.00
2022-11-27T14:53:21.720Z,100.00
2022-11-27T14:55:35.376Z,100.00
2022-11-27T14:57:50.382Z,100.00
2022-11-27T15:00:28.372Z,100.00
2022-11-27T15:02:41.873Z,100.00
2022-11-27T15:05:04.976Z,100.00
2022-11-27T15:07:22.163Z,100.00
2022-11-27T15:09:38.321Z,100.00
2022-11-27T15:11:56.842Z,100.00
2022-11-27T15:14:10.208Z,100.00
2022-11-27T15:16:27.756Z,100.00
2022-11-27T15:18:42.253Z,100.00
2022-11-27T15:20:56.166Z,100.00
2022-11-27T15:23:17.659Z,100.00
2022-11-27T15:25:42.645Z,100.00
2022-11-27T15:27:56.013Z,100.00
2022-11-27T15:30:17.703Z,100.00
2022-11-27T15:32:38.230Z,100.00
2022-11-27T15:34:51.367Z,100.00
2022-11-27T15:37:07.890Z,100.00
2022-11-27T15:39:40.038Z,100.00
2022-11-27T15:42:04.270Z,100.00
2022-11-27T15:44:17.806Z,100.00
2022-11-27T15:46:35.632Z,100.00
2022-11-27T15:48:48.943Z,100.00
2022-11-27T15:51:02.130Z,100.00
2022-11-27T15:53:15.319Z,100.00
2022-11-27T15:55:29.054Z,100.00
2022-11-27T15:57:42.670Z,100.00
2022-11-27T15:59:55.952Z,100.00
2022-11-27T16:02:13.187Z,99.59
2022-11-27T16:04:32.160Z,98.09
2022-11-27T16:06:45.499Z,98.74
2022-11-27T16:09:02.597Z,98.61
2022-11-27T16:11:20.685Z,97.64
2022-11-27T16:13:34.998Z,97.64
2022-11-27T16:15:48.466Z,96.43
2022-11-27T16:18:03.211Z,95.61
2022-11-27T16:20:17.864Z,94.48
2022-11-27T16:22:31.338Z,94.85
2022-11-27T16:24:44.922Z,93.46
2022-11-27T16:26:58.558Z,92.17
2022-11-27T16:29:12.513Z,91.84
2022-11-27T16:31:26.275Z,92.45
2022-11-27T16:33:39.756Z,91.25
2022-11-27T16:35:53.693Z,89.73
2022-11-27T16:38:07.256Z,89.79
2022-11-27T16:40:20.760Z,88.72
2022-11-27T16:42:34.917Z,88.83
2022-11-27T16:44:49.198Z,88.26
2022-11-27T16:47:02.825Z,87.25
2022-11-27T16:49:17.195Z,88.44
2022-11-27T16:51:33.504Z,88.21
2022-11-27T16:53:48.454Z,87.46
2022-11-27T16:56:02.016Z,87.45
2022-11-27T16:58:15.337Z,87.83
2022-11-27T17:00:29.224Z,86.81
2022-11-27T17:02:42.568Z,86.69
2022-11-27T17:04:56.010Z,87.45
2022-11-27T17:07:09.410Z,87.76
2022-11-27T17:09:25.869Z,87.02
2022-11-27T17:11:41.451Z,86.58
2022-11-27T17:13:56.047Z,87.01
2022-11-27T17:16:11.086Z,87.21
2022-11-27T17:18:24.665Z,87.37
2022-11-27T17:20:38.787Z,87.29
2022-11-27T17:22:53.813Z,86.91
2022-11-27T17:25:07.858Z,87.12
2022-11-27T17:27:22.350Z,86.19
2022-11-27T17:29:37.268Z,84.44
2022-11-27T17:31:51.058Z,84.93
2022-11-27T17:34:04.794Z,83.59
2022-11-27T17:36:19.985Z,83.05
2022-11-27T17:38:36.998Z,82.76
2022-11-27T17:40:53.028Z,81.54
2022-11-27T17:43:06.279Z,81.47
2022-11-27T17:45:19.801Z,81.51
2022-11-27T17:47:33.265Z,80.13
2022-11-27T17:49:46.382Z,79.67
2022-11-27T17:52:04.833Z,79.34
2022-11-27T17:54:21.241Z,79.45
2022-11-27T17:56:35.890Z,80.30
2022-11-27T17:58:49.408Z,80.40
2022-11-27T18:01:03.296Z,80.01
2022-11-27T18:03:17.989Z,79.58
2022-11-27T18:05:31.442Z,79.09
2022-11-27T18:07:45.242Z,79.59
2022-11-27T18:09:59.339Z,79.87
2022-11-27T18:12:13.556Z,79.59
2022-11-27T18:14:27.065Z,80.00
2022-11-27T18:16:42.453Z,80.55
2022-11-27T18:18:55.846Z,81.35
2022-11-27T18:21:18.036Z,81.64
2022-11-27T18:23:33.043Z,82.22
2022-11-27T18:25:49.193Z,82.72
2022-11-27T18:28:04.516Z,83.14
2022-11-27T18:30:19.202Z,83.70
2022-11-27T18:32:32.620Z,84.31
2022-11-27T18:34:46.082Z,84.70
2022-11-27T18:37:00.713Z,85.00
2022-11-27T18:39:13.978Z,85.37
2022-11-27T18:41:29.393Z,85.33
2022-11-27T18:43:45.224Z,85.56
2022-11-27T18:45:58.826Z,85.63
2022-11-27T18:48:12.760Z,85.80
2022-11-27T18:50:29.592Z,86.10
2022-11-27T18:52:43.414Z,86.45
2022-11-27T18:54:56.943Z,86.77
2022-11-27T18:57:12.405Z,86.94
2022-11-27T18:59:26.099Z,87.10
2022-11-27T19:01:42.532Z,87.44
2022-11-27T19:03:56.634Z,87.65
2022-11-27T19:06:11.542Z,87.53
2022-11-27T19:08:24.751Z,87.33
2022-11-27T19:10:38.769Z,87.21
2022-11-27T19:12:52.164Z,87.02
2022-11-27T19:15:05.713Z,87.16
2022-11-27T19:17:19.854Z,87.43
2022-11-27T19:19:53.897Z,87.52
2022-11-27T19:22:08.322Z,87.47
2022-11-27T19:24:22.167Z,86.23
2022-11-27T19:26:40.399Z,86.12
2022-11-27T19:28:58.595Z,86.26
2022-11-27T19:31:14.663Z,86.71
2022-11-27T19:33:28.211Z,86.86
2022-11-27T19:35:41.875Z,87.23
2022-11-27T19:37:55.259Z,87.36
2022-11-27T19:40:10.264Z,87.71
2022-11-27T19:42:23.590Z,87.52
2022-11-27T19:44:36.661Z,87.65
2022-11-27T19:46:49.903Z,88.02
2022-11-27T19:49:05.694Z,88.13
2022-11-27T19:51:19.607Z,88.09
2022-11-27T19:53:33.196Z,87.99
2022-11-27T19:55:46.575Z,87.99
2022-11-27T19:57:59.790Z,88.12
2022-11-27T20:00:15.934Z,88.36
2022-11-27T20:02:31.290Z,88.40
2022-11-27T20:04:44.773Z,88.41
2022-11-27T20:06:58.925Z,88.46
2022-11-27T20:09:12.729Z,88.75
2022-11-27T20:11:33.933Z,88.88
2022-11-27T20:13:48.379Z,89.14
2022-11-27T20:16:02.860Z,89.02
2022-11-27T20:18:16.932Z,88.46
2022-11-27T20:20:33.981Z,88.09
2022-11-27T20:22:47.677Z,87.88
2022-11-27T20:25:20.764Z,88.24
2022-11-27T20:27:34.249Z,88.23
2022-11-27T20:29:47.566Z,88.27
2022-11-27T20:32:00.855Z,87.81
2022-11-27T20:34:18.674Z,87.36
2022-11-27T20:36:33.964Z,86.83
2022-11-27T20:38:47.939Z,85.75
2022-11-27T20:41:01.359Z,84.89
2022-11-27T20:43:15.235Z,84.78
2022-11-27T20:45:29.160Z,84.74
2022-11-27T20:47:42.944Z,84.96
2022-11-27T20:49:56.362Z,85.27
2022-11-27T20:52:11.441Z,85.43
2022-11-27T20:54:25.213Z,85.87
2022-11-27T20:56:39.374Z,86.30
2022-11-27T20:58:53.518Z,86.37
2022-11-27T21:01:16.065Z,86.78
2022-11-27T21:03:29.534Z,87.08
2022-11-27T21:05:47.821Z,86.95
2022-11-27T21:08:01.852Z,86.81
2022-11-27T21:10:17.901Z,87.08
2022-11-27T21:12:31.463Z,87.01
2022-11-27T21:14:46.935Z,87.23
2022-11-27T21:17:04.826Z,87.57
2022-11-27T21:19:22.521Z,87.56
2022-11-27T21:21:36.505Z,87.40
2022-11-27T21:23:50.009Z,87.22
2022-11-27T21:26:03.718Z,87.13
2022-11-27T21:28:17.110Z,87.54
2022-11-27T21:30:30.552Z,87.97
2022-11-27T21:32:43.720Z,88.39
2022-11-27T21:34:56.985Z,88.42
2022-11-27T21:37:10.247Z,88.14
2022-11-27T21:39:23.677Z,87.55
2022-11-27T21:41:38.248Z,86.92
2022-11-27T21:43:52.248Z,86.17
2022-11-27T21:46:11.661Z,85.81
2022-11-27T21:48:25.182Z,86.03
2022-11-27T21:50:38.754Z,85.90
2022-11-27T21:52:52.258Z,85.61
2022-11-27T21:55:11.619Z,86.09
2022-11-27T21:57:25.359Z,85.94
2022-11-27T21:59:38.540Z,86.17
2022-11-27T22:01:52.525Z,85.70
2022-11-27T22:04:06.195Z,85.70
2022-11-27T22:06:21.059Z,85.91
2022-11-27T22:08:33.473Z,86.21
2022-11-27T22:10:47.790Z,86.04
2022-11-27T22:13:00.996Z,85.78
2022-11-27T22:15:16.824Z,85.49
2022-11-27T22:17:30.077Z,85.34
2022-11-27T22:19:43.646Z,85.07
2022-11-27T22:21:56.972Z,84.51
2022-11-27T22:24:15.052Z,83.07
2022-11-27T22:26:32.161Z,82.97
2022-11-27T22:28:45.542Z,83.70
2022-11-27T22:30:59.040Z,83.76
2022-11-27T22:33:12.393Z,84.08
2022-11-27T22:35:26.126Z,84.05
2022-11-27T22:37:39.495Z,84.39
2022-11-27T22:39:52.940Z,84.79
2022-11-27T22:42:06.200Z,85.11
2022-11-27T22:44:24.163Z,85.37
2022-11-27T22:46:38.588Z,85.23
2022-11-27T22:48:57.340Z,85.24
2022-11-27T22:51:11.587Z,85.25
2022-11-27T22:53:25.386Z,85.61
2022-11-27T22:55:41.151Z,85.76
2022-11-27T22:57:54.468Z,85.89
2022-11-27T23:00:10.675Z,86.25
2022-11-27T23:02:24.071Z,85.88
2022-11-27T23:04:37.596Z,85.61
2022-11-27T23:06:51.106Z,85.06
2022-11-27T23:09:04.319Z,84.72
2022-11-27T23:11:20.541Z,84.71
2022-11-27T23:13:33.935Z,84.97
2022-11-27T23:15:47.874Z,85.12
2022-11-27T23:18:02.751Z,84.39
2022-11-27T23:20:18.146Z,84.08
2022-11-27T23:22:31.487Z,84.36
2022-11-27T23:24:44.990Z,84.06
2022-11-27T23:26:58.794Z,84.24
2022-11-27T23:29:12.494Z,84.77
2022-11-27T23:31:31.134Z,84.62
2022-11-27T23:33:45.962Z,84.52
2022-11-27T23:36:06.118Z,84.38
2022-11-27T23:38:19.418Z,84.34
2022-11-27T23:40:32.701Z,84.26
2022-11-27T23:42:46.000Z,84.44
2022-11-27T23:44:59.147Z,84.39
2022-11-27T23:47:12.519Z,84.28
2022-11-27T23:49:25.802Z,84.27
2022-11-27T23:51:39.719Z,84.11
2022-11-27T23:53:53.566Z,84.06
2022-11-27T23:56:11.603Z,84.20
2022-11-27T23:58:24.937Z,84.27
